createdAt,value
2019-04-06T00:02:45.676Z,62.69
2019-04-06T00:07:47.386Z,62.73
2019-04-06T00:12:49.008Z,62.70
2019-04-06T00:17:50.532Z,62.79
2019-04-06T00:22:52.229Z,62.81
2019-04-06T00:27:53.760Z,62.85
2019-04-06T00:33:21.157Z,63.08
2019-04-06T00:38:22.693Z,63.01
2019-04-06T00:43:24.242Z,62.98
2019-04-06T00:48:25.791Z,63.13
2019-04-06T00:53:27.467Z,63.17
2019-04-06T00:58:29.035Z,63.29
2019-04-06T01:03:30.775Z,63.32
2019-04-06T01:08:32.469Z,63.10
2019-04-06T01:13:33.995Z,63.10
2019-04-06T01:18:35.536Z,63.16
2019-04-06T01:23:37.095Z,63.14
2019-04-06T01:28:38.835Z,63.20
2019-04-06T01:33:40.504Z,63.18
2019-04-06T01:38:42.049Z,63.27
2019-04-06T01:43:43.579Z,63.47
2019-04-06T01:48:45.241Z,63.54
2019-04-06T01:53:46.784Z,63.34
2019-04-06T01:58:48.349Z,63.23
2019-04-06T02:03:49.884Z,63.30
2019-04-06T02:08:51.470Z,63.65
2019-04-06T02:13:53.026Z,63.48
2019-04-06T02:18:54.699Z,63.34
2019-04-06T02:23:56.243Z,63.39
2019-04-06T02:28:57.789Z,63.27
2019-04-06T02:34:37.200Z,63.19
2019-04-06T02:39:48.947Z,63.31
2019-04-06T02:44:50.503Z,63.52
2019-04-06T02:49:52.205Z,63.37
2019-04-06T02:54:53.779Z,63.40
2019-04-06T02:59:55.465Z,63.56
2019-04-06T03:04:57.087Z,63.73
2019-04-06T03:09:58.766Z,63.84
2019-04-06T03:15:00.469Z,64.09
2019-04-06T03:20:02.464Z,63.77
2019-04-06T03:25:04.932Z,64.05
2019-04-06T03:30:06.936Z,64.18
2019-04-06T03:35:08.807Z,63.98
2019-04-06T03:40:10.555Z,63.66
2019-04-06T03:45:12.198Z,63.68
2019-04-06T03:50:13.964Z,63.65
2019-04-06T03:55:15.656Z,63.64
2019-04-06T04:00:17.567Z,63.77
2019-04-06T04:05:19.124Z,63.84
2019-04-06T04:10:40.389Z,63.75
2019-04-06T04:15:42.096Z,63.79
2019-04-06T04:20:44.080Z,63.86
2019-04-06T04:25:45.742Z,63.86
2019-04-06T04:30:47.408Z,63.90
2019-04-06T04:35:49.031Z,64.16
2019-04-06T04:40:50.891Z,64.45
2019-04-06T04:45:52.846Z,64.45
2019-04-06T04:50:54.509Z,64.53
2019-04-06T04:55:56.094Z,64.29
2019-04-06T05:00:57.836Z,64.26
2019-04-06T05:05:59.524Z,64.24
2019-04-06T05:11:01.223Z,64.37
2019-04-06T05:16:11.745Z,64.56
2019-04-06T05:21:13.409Z,64.61
2019-04-06T05:26:15.091Z,64.48
2019-04-06T05:31:16.690Z,64.88
2019-04-06T05:36:18.226Z,64.66
2019-04-06T05:41:19.913Z,64.53
2019-04-06T05:46:21.464Z,64.58
2019-04-06T05:51:23.044Z,64.59
2019-04-06T05:56:24.652Z,64.57
2019-04-06T06:01:26.363Z,64.45
2019-04-06T06:06:28.359Z,64.64
2019-04-06T06:11:29.986Z,64.81
2019-04-06T06:16:31.645Z,64.87
2019-04-06T06:21:33.205Z,64.85
2019-04-06T06:26:34.803Z,64.97
2019-04-06T06:31:36.374Z,64.89
2019-04-06T06:36:38.021Z,64.95
2019-04-06T06:41:39.765Z,64.97
2019-04-06T06:46:41.529Z,64.97
2019-04-06T06:51:43.106Z,65.02
2019-04-06T06:56:44.900Z,65.03
2019-04-06T07:01:46.697Z,65.07
2019-04-06T07:06:48.374Z,65.03
2019-04-06T07:11:50.048Z,65.19
2019-04-06T07:16:51.758Z,65.35
2019-04-06T07:21:53.506Z,65.28
2019-04-06T07:26:55.531Z,65.14
2019-04-06T07:31:57.375Z,65.12
2019-04-06T07:36:59.120Z,65.22
2019-04-06T07:42:01.108Z,65.42
2019-04-06T07:47:02.965Z,65.46
2019-04-06T07:52:04.684Z,65.54
2019-04-06T07:57:06.668Z,65.27
2019-04-06T08:02:08.869Z,65.06
2019-04-06T08:07:10.716Z,65.03
2019-04-06T08:12:12.564Z,65.33
2019-04-06T08:17:14.555Z,65.37
2019-04-06T08:22:16.174Z,65.18
2019-04-06T08:27:18.150Z,64.88
2019-04-06T08:32:20.004Z,65.13
2019-04-06T08:37:21.785Z,65.24
2019-04-06T08:42:23.560Z,64.92
2019-04-06T08:47:25.621Z,64.86
2019-04-06T08:52:27.640Z,64.79
2019-04-06T08:57:29.624Z,64.81
2019-04-06T09:02:31.372Z,64.65
2019-04-06T09:07:33.149Z,64.88
2019-04-06T09:12:34.859Z,65.03
2019-04-06T09:17:36.484Z,65.15
2019-04-06T09:22:38.094Z,65.57
2019-04-06T09:27:39.879Z,65.74
2019-04-06T09:32:41.827Z,65.83
2019-04-06T09:37:43.609Z,65.86
2019-04-06T09:42:45.468Z,65.90
2019-04-06T09:48:01.540Z,65.93
2019-04-06T09:53:18.262Z,65.92
2019-04-06T09:58:38.092Z,65.88
2019-04-06T10:04:14.765Z,65.86
2019-04-06T10:09:28.371Z,65.78
2019-04-06T10:14:53.136Z,65.69
2019-04-06T10:20:23.924Z,65.65
2019-04-06T10:25:47.218Z,65.54
2019-04-06T10:31:07.380Z,65.43
2019-04-06T10:36:17.248Z,65.25
2019-04-06T10:41:26.994Z,65.05
2019-04-06T10:46:35.601Z,64.83
2019-04-06T10:51:55.566Z,64.63
2019-04-06T10:57:26.523Z,64.38
2019-04-06T11:03:02.867Z,64.04
2019-04-06T11:08:26.899Z,63.70
2019-04-06T11:13:48.267Z,63.36
2019-04-06T11:19:01.014Z,63.08
2019-04-06T11:24:19.525Z,62.61
2019-04-06T11:29:25.962Z,62.10
2019-04-06T11:34:55.303Z,61.26
2019-04-06T11:40:08.350Z,60.00
2019-04-06T11:45:28.618Z,49.42
2019-04-06T11:50:50.545Z,48.16
2019-04-06T11:56:12.061Z,43.43
2019-04-06T12:01:28.244Z,47.09
2019-04-06T12:06:52.778Z,48.73
2019-04-06T12:12:12.759Z,51.05
2019-04-06T12:17:32.996Z,52.47
2019-04-06T12:23:03.114Z,52.97
2019-04-06T12:28:16.131Z,52.98
2019-04-06T12:33:28.494Z,51.56
2019-04-06T12:38:54.385Z,51.03
2019-04-06T12:44:14.419Z,50.47
2019-04-06T12:49:41.686Z,49.47
2019-04-06T12:55:08.890Z,51.41
2019-04-06T13:00:25.397Z,49.71
2019-04-06T13:05:43.395Z,49.42
2019-04-06T13:10:59.978Z,48.15
2019-04-06T13:16:30.438Z,46.75
2019-04-06T13:21:43.157Z,45.32
2019-04-06T13:27:02.805Z,45.28
2019-04-06T13:32:22.776Z,45.43
2019-04-06T13:37:42.531Z,46.34
2019-04-06T13:43:04.191Z,47.01
2019-04-06T13:48:43.752Z,46.40
2019-04-06T13:53:52.559Z,46.47
2019-04-06T13:59:19.682Z,46.33
2019-04-06T14:09:46.807Z,44.03
2019-04-06T14:15:04.618Z,44.35
2019-04-06T14:20:29.359Z,44.10
2019-04-06T14:25:53.226Z,43.70
2019-04-06T14:31:10.288Z,43.67
2019-04-06T14:36:28.895Z,43.74
2019-04-06T14:41:53.288Z,44.18
2019-04-06T14:47:05.473Z,44.37
2019-04-06T14:52:20.309Z,43.74
2019-04-06T14:57:47.526Z,43.20
2019-04-06T15:03:08.979Z,42.58
2019-04-06T15:08:25.821Z,42.89
2019-04-06T15:13:46.939Z,42.30
2019-04-06T15:18:55.620Z,41.26
2019-04-06T15:24:32.449Z,39.53
2019-04-06T15:29:52.612Z,38.08
2019-04-06T15:35:07.665Z,36.93
2019-04-06T15:40:25.041Z,34.18
2019-04-06T15:45:47.361Z,34.06
2019-04-06T15:51:24.634Z,32.83
2019-04-06T15:56:45.929Z,31.91
2019-04-06T16:02:06.107Z,30.26
2019-04-06T16:07:33.391Z,30.57
2019-04-06T16:12:49.019Z,30.55
2019-04-06T16:18:15.938Z,31.31
2019-04-06T16:23:44.087Z,29.81
2019-04-06T16:28:59.568Z,31.45
2019-04-06T16:34:23.620Z,31.79
2019-04-06T16:39:35.067Z,33.09
2019-04-06T16:44:44.745Z,33.10
2019-04-06T16:49:53.653Z,33.65
2019-04-06T16:55:13.451Z,35.51
2019-04-06T17:00:25.809Z,41.97
2019-04-06T17:05:41.775Z,41.97
2019-04-06T17:11:09.301Z,42.69
2019-04-06T17:16:30.696Z,42.74
2019-04-06T17:21:42.219Z,42.83
2019-04-06T17:26:51.535Z,42.90
2019-04-06T17:32:06.467Z,42.90
2019-04-06T17:37:34.577Z,42.82
2019-04-06T17:42:54.886Z,42.72
2019-04-06T17:48:07.308Z,42.70
2019-04-06T17:53:23.331Z,42.65
2019-04-06T17:58:43.380Z,42.64
2019-04-06T18:04:05.088Z,42.59
2019-04-06T18:09:25.800Z,42.62
2019-04-06T18:14:27.425Z,42.63
2019-04-06T18:19:29.794Z,42.75
2019-04-06T18:24:31.638Z,42.77
2019-04-06T18:29:33.381Z,42.74
2019-04-06T18:34:35.112Z,42.80
2019-04-06T18:39:36.961Z,42.90
2019-04-06T18:44:38.606Z,43.02
2019-04-06T18:49:40.772Z,43.11
2019-04-06T18:54:42.544Z,43.25
2019-04-06T18:59:44.828Z,43.38
2019-04-06T19:04:46.737Z,43.43
2019-04-06T19:09:48.963Z,43.40
2019-04-06T19:14:50.881Z,43.45
2019-04-06T19:19:52.545Z,43.54
2019-04-06T19:24:54.422Z,43.67
2019-04-06T19:29:56.819Z,43.77
2019-04-06T19:34:58.817Z,43.95
2019-04-06T19:40:00.750Z,44.12
2019-04-06T19:45:03.849Z,44.24
2019-04-06T19:50:06.392Z,44.36
2019-04-06T19:55:08.947Z,44.49
2019-04-06T20:00:11.411Z,44.58
2019-04-06T20:05:13.188Z,44.72
2019-04-06T20:10:15.188Z,44.88
2019-04-06T20:15:17.171Z,45.09
2019-04-06T20:20:19.132Z,45.33
2019-04-06T20:25:20.877Z,45.50
2019-04-06T20:30:23.005Z,45.80
2019-04-06T20:35:25.148Z,45.99
2019-04-06T20:40:27.448Z,46.22
2019-04-06T20:45:30.026Z,46.37
2019-04-06T20:50:32.518Z,46.57
2019-04-06T20:55:34.412Z,46.62
2019-04-06T21:00:36.250Z,46.75
2019-04-06T21:05:38.347Z,46.86
2019-04-06T21:10:40.698Z,47.06
2019-04-06T21:15:43.472Z,47.17
2019-04-06T21:20:45.334Z,47.34
2019-04-06T21:25:47.533Z,47.58
2019-04-06T21:30:49.346Z,47.71
2019-04-06T21:35:51.058Z,47.92
2019-04-06T21:40:53.407Z,48.14
2019-04-06T21:45:55.241Z,48.29
2019-04-06T21:50:57.275Z,48.42
2019-04-06T21:56:04.039Z,48.57
2019-04-06T22:01:03.503Z,48.70
2019-04-06T22:06:05.725Z,48.82
2019-04-06T22:11:08.233Z,49.04
2019-04-06T22:16:09.978Z,49.19
2019-04-06T22:21:11.665Z,49.39
2019-04-06T22:26:13.279Z,49.59
2019-04-06T22:31:15.019Z,49.68
2019-04-06T22:36:16.729Z,49.77
2019-04-06T22:41:18.410Z,49.88
2019-04-06T22:46:20.361Z,50.01
2019-04-06T22:51:22.123Z,50.14
2019-04-06T22:56:23.837Z,50.41
2019-04-06T23:01:27.747Z,50.54
2019-04-06T23:06:36.689Z,50.62
2019-04-06T23:11:38.546Z,50.81
2019-04-06T23:16:40.436Z,50.99
2019-04-06T23:21:42.213Z,51.15
2019-04-06T23:26:44.011Z,51.29
2019-04-06T23:31:46.675Z,51.42
2019-04-06T23:36:48.703Z,51.43
2019-04-06T23:41:50.751Z,51.47
2019-04-06T23:46:52.394Z,51.57
2019-04-06T23:51:54.345Z,51.67
2019-04-06T23:56:56.818Z,51.94
